Time;durP1;ratioP1;P1;durP2;ratioP2;P2;SDS_P1;SDS_P2;PMS_P1;PMS_P2;Temp;Humidity;BMP_temperature;BMP_pressure;BME280_temperature;BME280_humidity;BME280_pressure;Samples;Min_cycle;Max_cycle;Signal;HPM_P1;HPM_P2
2023/09/16 00:01:33;;;;;;;10.07;9.00;;;17.80;99.90;;;;;;5013394;28;20179;-72
2023/09/16 00:03:59;;;;;;;10.67;9.77;;;17.80;99.90;;;;;;5012923;28;20410;-72
2023/09/16 00:06:25;;;;;;;9.77;8.83;;;17.80;99.90;;;;;;5013211;28;20975;-72
2023/09/16 00:08:51;;;;;;;9.90;9.07;;;17.80;99.90;;;;;;5011950;28;20780;-71
2023/09/16 00:11:16;;;;;;;9.37;8.33;;;17.80;99.90;;;;;;5012777;28;20434;-72
2023/09/16 00:13:43;;;;;;;9.97;8.93;;;17.80;99.90;;;;;;5012578;28;20179;-72
2023/09/16 00:16:12;;;;;;;9.20;8.50;;;17.80;99.90;;;;;;5012108;28;20530;-72
2023/09/16 00:18:38;;;;;;;9.93;8.67;;;17.70;99.90;;;;;;5012845;28;20425;-72
2023/09/16 00:21:04;;;;;;;10.03;8.50;;;17.70;99.90;;;;;;5012265;28;20422;-72
2023/09/16 00:23:31;;;;;;;9.43;8.50;;;17.60;99.90;;;;;;5012626;28;20448;-72
2023/09/16 00:25:57;;;;;;;9.67;8.77;;;17.60;99.90;;;;;;5011334;28;20237;-72
2023/09/16 00:28:25;;;;;;;10.13;9.10;;;17.60;99.90;;;;;;5012369;28;20915;-72
2023/09/16 00:30:51;;;;;;;10.00;8.97;;;17.60;99.90;;;;;;5012399;28;20842;-72
2023/09/16 00:33:17;;;;;;;10.07;9.17;;;17.50;99.90;;;;;;5012661;28;20504;-72
2023/09/16 00:35:42;;;;;;;9.37;8.57;;;17.50;99.90;;;;;;5012696;28;20634;-72
2023/09/16 00:38:09;;;;;;;10.77;9.77;;;17.50;99.90;;;;;;5011425;28;20183;-72
2023/09/16 00:40:36;;;;;;;10.90;9.83;;;17.50;99.90;;;;;;5011645;28;20663;-72
2023/09/16 00:43:02;;;;;;;9.40;8.50;;;17.60;99.90;;;;;;5011410;28;20426;-72
2023/09/16 00:45:28;;;;;;;9.93;9.13;;;17.50;99.90;;;;;;5012674;28;20944;-72
2023/09/16 00:47:54;;;;;;;9.87;8.97;;;17.50;99.90;;;;;;5012382;28;20410;-72
2023/09/16 00:50:20;;;;;;;9.67;8.87;;;17.50;99.90;;;;;;5012915;28;20178;-73
2023/09/16 00:52:51;;;;;;;9.27;8.47;;;17.60;99.90;;;;;;5012962;28;20178;-72
2023/09/16 00:55:17;;;;;;;9.63;8.70;;;17.60;99.90;;;;;;5012330;28;20921;-73
2023/09/16 00:57:47;;;;;;;9.60;8.80;;;17.60;99.90;;;;;;5012820;28;20400;-73
2023/09/16 01:00:16;;;;;;;9.57;8.67;;;17.60;99.90;;;;;;5011850;28;20438;-72
2023/09/16 01:02:43;;;;;;;9.50;8.80;;;17.60;99.90;;;;;;5012796;28;20429;-73
2023/09/16 01:05:14;;;;;;;10.20;9.40;;;17.60;99.90;;;;;;5011531;28;20450;-73
2023/09/16 01:07:41;;;;;;;9.83;8.20;;;17.60;99.90;;;;;;5012615;28;20414;-73
2023/09/16 01:10:10;;;;;;;9.60;8.80;;;17.60;99.90;;;;;;5011147;28;20406;-73
2023/09/16 01:12:37;;;;;;;9.87;9.03;;;17.60;99.90;;;;;;5012040;28;20449;-73
2023/09/16 01:15:06;;;;;;;8.73;7.93;;;17.60;99.90;;;;;;5011764;28;20421;-73
2023/09/16 01:17:34;;;;;;;9.07;8.37;;;17.60;99.90;;;;;;5012369;28;20505;-74
2023/09/16 01:20:06;;;;;;;10.73;9.83;;;17.60;99.90;;;;;;5010122;28;20513;-73
2023/09/16 01:22:33;;;;;;;11.30;10.23;;;17.70;99.90;;;;;;5012748;28;20414;-77
2023/09/16 01:25:05;;;;;;;10.73;9.73;;;17.70;99.90;;;;;;5011320;28;20481;-70
2023/09/16 01:27:31;;;;;;;10.23;9.43;;;17.70;99.90;;;;;;5012418;28;20414;-69
2023/09/16 01:30:00;;;;;;;10.03;9.13;;;17.60;99.90;;;;;;5011780;28;20523;-69
2023/09/16 01:32:34;;;;;;;11.47;9.77;;;17.60;99.90;;;;;;5012340;28;20491;-70
2023/09/16 01:35:05;;;;;;;9.47;8.57;;;17.50;99.90;;;;;;5011644;28;20429;-69
2023/09/16 01:37:33;;;;;;;8.70;8.00;;;17.40;99.90;;;;;;5011073;28;20491;-70
2023/09/16 01:39:59;;;;;;;9.30;8.40;;;17.30;99.90;;;;;;5010424;28;20466;-70
2023/09/16 01:42:30;;;;;;;9.33;8.53;;;17.30;99.90;;;;;;5011883;28;20434;-70
2023/09/16 01:44:56;;;;;;;9.17;8.43;;;17.40;99.90;;;;;;5011695;28;20445;-69
2023/09/16 01:47:22;;;;;;;9.30;8.50;;;17.40;99.90;;;;;;5012586;28;20748;-70
2023/09/16 01:49:48;;;;;;;8.70;8.00;;;17.50;99.90;;;;;;5011956;28;20270;-70
2023/09/16 01:52:16;;;;;;;10.27;9.43;;;17.60;99.90;;;;;;5011799;28;20176;-70
2023/09/16 01:54:42;;;;;;;9.50;8.70;;;17.60;99.90;;;;;;5015837;28;20436;-70
2023/09/16 01:57:08;;;;;;;10.60;9.70;;;17.70;99.90;;;;;;5014969;28;20425;-70
2023/09/16 01:59:34;;;;;;;9.73;8.93;;;17.70;99.90;;;;;;5015593;28;20425;-70
2023/09/16 02:02:00;;;;;;;9.77;8.97;;;17.80;99.90;;;;;;5015270;28;20497;-70
2023/09/16 02:04:26;;;;;;;9.00;8.27;;;17.80;99.90;;;;;;5015817;28;21008;-70
2023/09/16 02:06:52;;;;;;;10.00;9.10;;;17.90;99.90;;;;;;5015314;28;20198;-70
2023/09/16 02:09:17;;;;;;;9.47;8.77;;;17.90;99.90;;;;;;5015355;28;20186;-70
2023/09/16 02:11:43;;;;;;;8.90;8.10;;;17.90;99.90;;;;;;5014088;28;20186;-70
2023/09/16 02:14:12;;;;;;;8.33;7.63;;;18.00;99.90;;;;;;5014840;28;20171;-70
2023/09/16 02:16:37;;;;;;;9.67;8.63;;;18.00;99.90;;;;;;5014278;28;20175;-70
2023/09/16 02:19:04;;;;;;;9.73;8.93;;;18.00;99.90;;;;;;5014957;28;20901;-70
2023/09/16 02:21:30;;;;;;;9.30;8.50;;;18.00;99.90;;;;;;5015709;28;20270;-70
2023/09/16 02:23:56;;;;;;;8.73;8.03;;;18.10;99.90;;;;;;5015133;28;20954;-70
2023/09/16 02:26:22;;;;;;;9.37;8.60;;;18.00;99.90;;;;;;5015469;28;20199;-70
2023/09/16 02:28:47;;;;;;;9.87;8.97;;;18.10;99.90;;;;;;5015307;28;20410;-69
2023/09/16 02:31:15;;;;;;;9.63;8.83;;;18.10;99.90;;;;;;5014403;28;20179;-70
2023/09/16 02:33:41;;;;;;;9.43;8.73;;;18.10;99.90;;;;;;5014974;28;20179;-70
2023/09/16 02:36:07;;;;;;;9.30;8.50;;;18.00;99.90;;;;;;5014583;28;20883;-70
2023/09/16 02:38:33;;;;;;;10.93;9.33;;;18.00;99.90;;;;;;5014765;28;20500;-70
2023/09/16 02:41:05;;;;;;;9.00;8.30;;;18.00;99.90;;;;;;4995776;28;20477;-69
2023/09/16 02:43:31;;;;;;;9.80;9.00;;;18.10;99.90;;;;;;5015161;28;20418;-70
2023/09/16 02:45:57;;;;;;;11.00;10.10;;;18.10;99.90;;;;;;5014719;28;20929;-70
2023/09/16 02:48:23;;;;;;;9.27;8.47;;;18.10;99.90;;;;;;5013664;28;20175;-70
2023/09/16 02:50:54;;;;;;;10.77;9.93;;;18.10;99.90;;;;;;5014611;28;20216;-70
2023/09/16 02:53:19;;;;;;;10.90;9.90;;;18.10;99.90;;;;;;5014324;28;20441;-69
2023/09/16 02:55:45;;;;;;;10.10;9.30;;;18.10;99.90;;;;;;5014409;28;20446;-69
2023/09/16 02:58:11;;;;;;;10.23;9.53;;;18.10;99.90;;;;;;5014231;28;20635;-70
2023/09/16 03:00:36;;;;;;;9.03;8.33;;;18.10;99.90;;;;;;5014721;28;20190;-70
2023/09/16 03:03:02;;;;;;;9.60;8.60;;;18.10;99.90;;;;;;5014156;28;20190;-69
2023/09/16 03:05:29;;;;;;;9.93;9.17;;;18.10;99.90;;;;;;5013532;28;20199;-69
2023/09/16 03:07:55;;;;;;;9.17;8.30;;;18.10;99.90;;;;;;5014747;28;20418;-70
2023/09/16 03:10:20;;;;;;;9.97;9.10;;;18.10;99.90;;;;;;5007973;28;20534;-69
2023/09/16 03:12:46;;;;;;;9.47;8.77;;;18.10;99.90;;;;;;4994739;28;20194;-69
2023/09/16 03:15:12;;;;;;;9.50;8.73;;;18.10;99.90;;;;;;5002097;28;20270;-69
2023/09/16 03:17:38;;;;;;;9.70;8.93;;;18.10;99.90;;;;;;5014327;28;20172;-69
2023/09/16 03:20:04;;;;;;;9.67;8.77;;;18.10;99.90;;;;;;5013407;28;20581;-69
2023/09/16 03:22:29;;;;;;;9.73;8.90;;;18.10;99.90;;;;;;5014668;28;20175;-69
2023/09/16 03:24:55;;;;;;;9.87;9.07;;;18.10;99.90;;;;;;5014240;28;20805;-69
2023/09/16 03:27:21;;;;;;;9.63;8.90;;;18.10;99.90;;;;;;5013352;28;20178;-69
2023/09/16 03:29:47;;;;;;;10.40;9.40;;;18.10;99.90;;;;;;5013871;28;20257;-69
2023/09/16 03:32:12;;;;;;;9.70;8.80;;;18.10;99.90;;;;;;5013365;28;20183;-69
2023/09/16 03:34:38;;;;;;;9.33;8.60;;;18.10;99.90;;;;;;5014430;28;20512;-70
2023/09/16 03:37:04;;;;;;;9.40;8.70;;;18.10;99.90;;;;;;5013301;28;20199;-71
2023/09/16 03:39:30;;;;;;;10.17;9.23;;;18.10;99.90;;;;;;5013074;28;20226;-70
2023/09/16 03:41:55;;;;;;;10.90;10.00;;;18.10;99.90;;;;;;5013692;28;20171;-70
2023/09/16 03:44:21;;;;;;;10.80;9.90;;;18.10;99.90;;;;;;5012992;28;20218;-69
2023/09/16 03:46:51;;;;;;;12.90;10.80;;;18.10;99.90;;;;;;5013988;28;20426;-70
2023/09/16 03:49:16;;;;;;;9.87;9.13;;;18.10;99.90;;;;;;5013250;28;20186;-70
2023/09/16 03:51:42;;;;;;;11.17;10.07;;;18.10;99.90;;;;;;5013754;28;20411;-70
2023/09/16 03:54:08;;;;;;;11.83;10.73;;;18.10;99.90;;;;;;5013141;28;20577;-70
2023/09/16 03:56:34;;;;;;;11.80;10.80;;;18.10;99.90;;;;;;5013404;28;20627;-70
2023/09/16 03:59:00;;;;;;;11.00;10.10;;;18.10;99.90;;;;;;5012506;28;20175;-70
2023/09/16 04:01:25;;;;;;;10.37;9.57;;;18.20;99.90;;;;;;5013111;28;20418;-70
2023/09/16 04:03:54;;;;;;;11.23;10.30;;;18.20;99.90;;;;;;5013712;28;20520;-70
2023/09/16 04:06:20;;;;;;;10.70;9.80;;;18.20;99.90;;;;;;5012864;28;20206;-69
2023/09/16 04:08:46;;;;;;;10.10;9.20;;;18.10;99.90;;;;;;5013801;28;20414;-70
2023/09/16 04:11:12;;;;;;;10.83;10.03;;;18.10;99.90;;;;;;5011712;28;20238;-69
2023/09/16 04:13:38;;;;;;;9.43;8.73;;;18.10;99.90;;;;;;5013710;28;20193;-70
2023/09/16 04:16:03;;;;;;;12.07;9.90;;;18.10;99.90;;;;;;5012285;28;20207;-62
2023/09/16 04:18:29;;;;;;;9.90;8.90;;;18.10;99.90;;;;;;5012914;28;20894;-70
2023/09/16 04:20:58;;;;;;;9.33;8.53;;;18.10;99.90;;;;;;5013463;28;20418;-70
2023/09/16 04:23:23;;;;;;;10.60;9.50;;;18.10;99.90;;;;;;5012666;28;20658;-70
2023/09/16 04:25:56;;;;;;;9.10;8.37;;;18.10;99.90;;;;;;5011593;28;20466;-70
2023/09/16 04:28:25;;;;;;;9.07;8.37;;;18.10;99.90;;;;;;5012645;28;20410;-69
2023/09/16 04:30:52;;;;;;;11.20;10.30;;;18.00;99.90;;;;;;5011632;28;20425;-69
2023/09/16 04:33:18;;;;;;;10.00;9.20;;;18.00;99.90;;;;;;5012599;28;20418;-69
2023/09/16 04:35:48;;;;;;;8.70;7.90;;;18.00;99.90;;;;;;5012874;28;20430;-69
2023/09/16 04:38:15;;;;;;;9.53;8.80;;;18.00;99.90;;;;;;5012083;28;20414;-69
2023/09/16 04:40:42;;;;;;;11.03;9.97;;;17.90;99.90;;;;;;5011930;28;21007;-69
2023/09/16 04:43:08;;;;;;;9.83;9.03;;;18.00;99.90;;;;;;5012415;28;20515;-69
2023/09/16 04:45:34;;;;;;;9.73;8.90;;;18.00;99.90;;;;;;5011042;28;20477;-69
2023/09/16 04:48:00;;;;;;;9.70;8.80;;;17.90;99.90;;;;;;5012964;28;20421;-69
2023/09/16 04:50:29;;;;;;;9.30;8.60;;;17.90;99.90;;;;;;5012370;28;20179;-70
2023/09/16 04:52:56;;;;;;;10.43;9.60;;;17.90;99.90;;;;;;5013075;28;20897;-69
2023/09/16 04:55:22;;;;;;;9.77;9.00;;;17.90;99.90;;;;;;5012341;28;20412;-69
2023/09/16 04:57:47;;;;;;;11.00;10.00;;;17.80;99.90;;;;;;5013244;28;20406;-70
2023/09/16 05:00:13;;;;;;;10.60;9.50;;;17.90;99.90;;;;;;5011990;28;20221;-69
2023/09/16 05:02:39;;;;;;;10.90;10.00;;;17.80;99.90;;;;;;5012997;28;20171;-69
2023/09/16 05:05:05;;;;;;;9.23;8.53;;;17.80;99.90;;;;;;5012579;28;20265;-69
2023/09/16 05:07:31;;;;;;;9.87;9.07;;;17.80;99.90;;;;;;5012396;28;20237;-70
2023/09/16 05:09:57;;;;;;;9.87;9.17;;;17.80;99.90;;;;;;5011857;28;20933;-70
2023/09/16 05:12:23;;;;;;;10.53;9.73;;;17.80;99.90;;;;;;5011628;28;20191;-70
2023/09/16 05:14:49;;;;;;;10.50;9.40;;;17.80;99.90;;;;;;5011896;28;20194;-70
2023/09/16 05:17:15;;;;;;;9.53;8.83;;;17.80;99.90;;;;;;5011835;28;20564;-71
2023/09/16 05:19:41;;;;;;;9.97;9.17;;;17.80;99.90;;;;;;5012634;28;20493;-70
2023/09/16 05:22:07;;;;;;;10.53;9.53;;;17.80;99.90;;;;;;5012717;28;20624;-61
2023/09/16 05:24:33;;;;;;;9.53;8.73;;;17.80;99.90;;;;;;5012195;28;20333;-69
2023/09/16 05:26:59;;;;;;;8.97;8.17;;;17.90;99.90;;;;;;5011068;28;20433;-69
2023/09/16 05:29:25;;;;;;;9.63;8.83;;;17.80;99.90;;;;;;5015046;28;20425;-69
2023/09/16 05:31:53;;;;;;;10.00;9.30;;;17.90;99.90;;;;;;5016473;28;20442;-70
2023/09/16 05:34:18;;;;;;;9.93;9.07;;;17.90;99.90;;;;;;5015398;28;20896;-70
2023/09/16 05:36:44;;;;;;;10.37;9.47;;;17.90;99.90;;;;;;5016303;28;20421;-69
2023/09/16 05:39:10;;;;;;;10.83;9.77;;;18.00;99.90;;;;;;5014958;28;20936;-69
2023/09/16 05:41:38;;;;;;;10.00;9.20;;;18.00;99.90;;;;;;5014844;28;20422;-69
2023/09/16 05:44:04;;;;;;;10.47;9.57;;;18.10;99.90;;;;;;5016091;28;20417;-67
2023/09/16 05:46:31;;;;;;;9.40;8.70;;;18.10;99.90;;;;;;5015133;28;20424;-69
2023/09/16 05:49:06;;;;;;;10.77;9.77;;;18.10;99.90;;;;;;5016210;28;20406;-69
2023/09/16 05:51:35;;;;;;;10.37;9.40;;;18.10;99.90;;;;;;5015574;28;20398;-69
2023/09/16 05:54:01;;;;;;;9.83;8.93;;;18.20;99.90;;;;;;5015968;28;20413;-70
2023/09/16 05:56:27;;;;;;;10.27;9.47;;;18.20;99.90;;;;;;5015404;28;20405;-70
2023/09/16 05:58:54;;;;;;;10.00;9.10;;;18.30;99.90;;;;;;5015761;28;20496;-70
2023/09/16 06:01:19;;;;;;;10.10;9.33;;;18.30;99.90;;;;;;5009078;28;20907;-69
2023/09/16 06:03:45;;;;;;;10.67;9.57;;;18.40;99.90;;;;;;5000588;28;20417;-70
2023/09/16 06:06:11;;;;;;;10.50;9.53;;;18.40;99.90;;;;;;4997405;28;20258;-69
2023/09/16 06:08:37;;;;;;;8.50;7.80;;;18.40;99.90;;;;;;5015375;28;20547;-69
2023/09/16 06:11:03;;;;;;;9.67;8.77;;;18.50;99.90;;;;;;5012362;28;20198;-69
2023/09/16 06:13:29;;;;;;;10.83;9.90;;;18.50;99.90;;;;;;5009653;28;20425;-69
2023/09/16 06:15:55;;;;;;;10.90;10.00;;;18.50;99.90;;;;;;5014866;28;20421;-69
2023/09/16 06:18:21;;;;;;;11.07;10.07;;;18.50;99.90;;;;;;5014406;28;20422;-70
2023/09/16 06:20:47;;;;;;;9.37;8.47;;;18.50;99.90;;;;;;5014672;28;20421;-68
2023/09/16 06:23:16;;;;;;;9.90;9.10;;;18.50;99.90;;;;;;5014749;28;20241;-69
2023/09/16 06:25:42;;;;;;;9.47;8.83;;;18.50;99.90;;;;;;5015354;28;20956;-69
2023/09/16 06:28:08;;;;;;;9.57;8.80;;;18.50;99.90;;;;;;5013923;28;20195;-70
2023/09/16 06:30:33;;;;;;;9.47;8.63;;;18.60;99.90;;;;;;5012607;28;20183;-69
2023/09/16 06:32:59;;;;;;;10.03;9.13;;;18.70;99.90;;;;;;5014164;28;20414;-70
2023/09/16 06:35:25;;;;;;;9.13;8.30;;;18.70;99.90;;;;;;5014369;28;20205;-69
2023/09/16 06:37:51;;;;;;;9.13;8.33;;;18.80;99.90;;;;;;5015245;28;20187;-69
2023/09/16 06:40:17;;;;;;;9.30;8.60;;;18.80;99.90;;;;;;5012122;28;20450;-69
2023/09/16 06:42:43;;;;;;;8.97;8.27;;;18.90;99.90;;;;;;5015193;28;20182;-70
2023/09/16 06:45:10;;;;;;;9.03;8.40;;;18.90;99.90;;;;;;5015160;28;20487;-69
2023/09/16 06:47:35;;;;;;;9.40;8.67;;;19.00;99.90;;;;;;5014469;28;20422;-69
2023/09/16 06:50:01;;;;;;;9.70;8.80;;;19.10;99.90;;;;;;5015006;28;20433;-69
2023/09/16 06:52:30;;;;;;;8.70;8.10;;;19.10;99.90;;;;;;5014286;28;20218;-69
2023/09/16 06:54:56;;;;;;;8.97;8.27;;;19.10;99.90;;;;;;5014912;28;20211;-69
2023/09/16 06:57:21;;;;;;;9.10;8.20;;;19.20;99.90;;;;;;5014267;28;20449;-69
2023/09/16 06:59:49;;;;;;;9.67;8.87;;;19.20;99.90;;;;;;5013159;28;20956;-69
2023/09/16 07:02:15;;;;;;;8.90;8.20;;;19.30;99.90;;;;;;5014158;28;20410;-68
2023/09/16 07:04:40;;;;;;;9.07;8.37;;;19.40;99.90;;;;;;5014848;28;20453;-75
2023/09/16 07:07:10;;;;;;;10.37;9.23;;;19.40;99.90;;;;;;5012541;28;20897;-75
2023/09/16 07:09:35;;;;;;;9.40;8.50;;;19.50;99.90;;;;;;5010792;28;20556;-75
2023/09/16 07:12:01;;;;;;;10.20;9.50;;;19.70;99.90;;;;;;5014131;28;20430;-75
2023/09/16 07:14:27;;;;;;;10.10;9.30;;;19.90;99.90;;;;;;5013458;28;20249;-75
2023/09/16 07:16:53;;;;;;;11.23;10.37;;;20.10;99.90;;;;;;5014389;28;20442;-74
2023/09/16 07:19:19;;;;;;;11.90;10.90;;;20.30;99.90;;;;;;5013452;28;20183;-72
2023/09/16 07:21:44;;;;;;;12.20;11.10;;;20.40;99.90;;;;;;5013922;28;20189;-75
2023/09/16 07:24:10;;;;;;;11.43;10.53;;;20.60;99.90;;;;;;5009615;28;20759;-75
2023/09/16 07:26:36;;;;;;;10.10;9.20;;;20.70;99.90;;;;;;4999237;28;20235;-76
2023/09/16 07:29:02;;;;;;;8.73;8.13;;;20.70;99.90;;;;;;4998034;28;20168;-75
2023/09/16 07:31:28;;;;;;;9.30;8.53;;;20.70;99.90;;;;;;5013308;28;20187;-75
2023/09/16 07:33:54;;;;;;;12.43;11.30;;;20.80;99.90;;;;;;5013254;28;20181;-75
2023/09/16 07:36:20;;;;;;;12.50;11.43;;;20.90;99.90;;;;;;5012104;28;20430;-76
2023/09/16 07:38:45;;;;;;;12.00;11.10;;;21.10;99.90;;;;;;5013286;28;20179;-73
2023/09/16 07:41:11;;;;;;;13.17;11.77;;;21.20;99.90;;;;;;5013071;28;20702;-76
2023/09/16 07:43:37;;;;;;;13.80;10.50;;;21.20;99.90;;;;;;5012903;28;20638;-78
2023/09/16 07:46:03;;;;;;;8.97;8.10;;;21.30;99.90;;;;;;5013166;28;20211;-71
2023/09/16 07:48:28;;;;;;;8.70;7.80;;;21.30;99.90;;;;;;5012314;28;20174;-72
2023/09/16 07:50:54;;;;;;;10.30;9.20;;;21.40;99.90;;;;;;5012488;28;20175;-71
2023/09/16 07:53:21;;;;;;;12.03;10.87;;;21.50;99.90;;;;;;5012949;28;20167;-68
2023/09/16 07:55:46;;;;;;;10.70;9.70;;;21.60;99.90;;;;;;5012571;28;20187;-66
2023/09/16 07:58:12;;;;;;;10.83;9.80;;;21.60;99.90;;;;;;5013046;28;22022;-68
2023/09/16 08:00:38;;;;;;;11.00;9.13;;;21.60;99.90;;;;;;5008027;28;20179;-68
2023/09/16 08:03:04;;;;;;;10.67;9.57;;;21.60;99.90;;;;;;5012983;28;20179;-67
2023/09/16 08:05:29;;;;;;;49.93;26.70;;;21.70;99.90;;;;;;5011106;28;20202;-75
2023/09/16 08:07:55;;;;;;;17.47;11.97;;;21.70;99.90;;;;;;5013118;28;20440;-76
2023/09/16 08:10:21;;;;;;;17.70;14.00;;;21.70;99.90;;;;;;5012353;28;20537;-73
2023/09/16 08:12:47;;;;;;;13.37;12.03;;;21.80;99.90;;;;;;5013111;28;20217;-73
2023/09/16 08:15:12;;;;;;;7.30;6.80;;;22.00;99.90;;;;;;4995801;28;20654;-73
2023/09/16 08:17:38;;;;;;;7.53;7.03;;;22.00;99.90;;;;;;5011917;28;20682;-75
2023/09/16 08:20:06;;;;;;;10.80;9.80;;;21.80;99.90;;;;;;5011974;28;20179;-75
2023/09/16 08:22:31;;;;;;;9.90;9.00;;;21.90;99.90;;;;;;5012326;28;20187;-73
2023/09/16 08:24:57;;;;;;;7.67;7.07;;;21.90;99.90;;;;;;5011693;28;20616;-73
2023/09/16 08:27:23;;;;;;;8.37;7.67;;;22.10;99.90;;;;;;5011956;28;20187;-75
2023/09/16 08:29:53;;;;;;;11.63;8.60;;;22.20;99.90;;;;;;5013010;28;20633;-75
2023/09/16 08:32:21;;;;;;;8.30;7.57;;;22.30;99.90;;;;;;5012627;28;20167;-74
2023/09/16 08:34:47;;;;;;;8.00;7.40;;;22.40;99.90;;;;;;5012810;28;20749;-75
2023/09/16 08:37:12;;;;;;;9.27;8.43;;;22.50;99.90;;;;;;5011957;28;20432;-73
2023/09/16 08:39:38;;;;;;;9.07;8.37;;;22.60;99.90;;;;;;5011537;28;20470;-73
2023/09/16 08:42:14;;;;;;;8.53;7.60;;;22.70;99.90;;;;;;5012548;28;20186;-72
2023/09/16 08:44:44;;;;;;;7.10;6.43;;;22.80;99.90;;;;;;5012386;28;20206;-72
2023/09/16 08:47:20;;;;;;;7.17;6.67;;;22.80;99.90;;;;;;5011841;28;20413;-70
2023/09/16 08:49:52;;;;;;;7.80;7.10;;;22.80;99.90;;;;;;5012723;28;20512;-69
2023/09/16 08:52:19;;;;;;;7.47;6.93;;;22.90;99.90;;;;;;5007728;28;20427;-71
2023/09/16 08:54:47;;;;;;;7.03;6.60;;;23.00;99.90;;;;;;5005786;28;20512;-71
2023/09/16 08:57:14;;;;;;;7.50;6.90;;;23.20;99.90;;;;;;5012417;28;20480;-71
2023/09/16 08:59:41;;;;;;;7.67;7.07;;;23.20;99.90;;;;;;5012019;28;20681;-71
2023/09/16 09:02:09;;;;;;;7.20;6.60;;;23.30;99.90;;;;;;5013189;28;20917;-71
2023/09/16 09:04:36;;;;;;;7.50;7.00;;;23.50;99.90;;;;;;5018108;28;20449;-71
2023/09/16 09:07:02;;;;;;;7.50;7.00;;;23.50;99.90;;;;;;5019231;28;20489;-71
2023/09/16 09:09:29;;;;;;;8.37;7.40;;;23.60;99.90;;;;;;5006980;28;20453;-71
2023/09/16 09:11:57;;;;;;;7.70;6.97;;;23.60;99.90;;;;;;4999326;28;20899;-71
2023/09/16 09:14:23;;;;;;;6.90;6.40;;;23.70;99.90;;;;;;5000314;28;20438;-71
2023/09/16 09:16:51;;;;;;;7.30;6.80;;;23.80;99.90;;;;;;5018521;28;20422;-70
2023/09/16 09:19:20;;;;;;;6.77;6.37;;;23.90;99.90;;;;;;5005029;28;20411;-71
2023/09/16 09:21:47;;;;;;;6.77;6.37;;;24.00;99.90;;;;;;4999108;28;20438;-71
2023/09/16 09:24:13;;;;;;;6.87;6.37;;;24.10;99.90;;;;;;5007763;28;20530;-71
2023/09/16 09:26:39;;;;;;;7.00;6.50;;;24.10;99.90;;;;;;5016133;28;20434;-71
2023/09/16 09:29:09;;;;;;;7.50;7.00;;;24.30;99.90;;;;;;5018775;28;20198;-71
2023/09/16 09:31:36;;;;;;;7.10;6.60;;;24.30;99.90;;;;;;5018298;28;20163;-71
2023/09/16 09:34:02;;;;;;;7.10;6.60;;;24.50;99.90;;;;;;5018581;28;20494;-70
2023/09/16 09:36:32;;;;;;;6.70;6.30;;;24.60;99.90;;;;;;5015412;28;20521;-70
2023/09/16 09:38:58;;;;;;;7.17;6.47;;;24.80;99.90;;;;;;5015012;28;20638;-71
2023/09/16 09:41:24;;;;;;;7.70;7.17;;;24.90;99.90;;;;;;5005819;28;20453;-71
2023/09/16 09:43:52;;;;;;;7.73;7.13;;;25.10;99.90;;;;;;4999358;28;20186;-71
2023/09/16 09:46:20;;;;;;;8.47;7.97;;;25.20;99.90;;;;;;5018108;28;20600;-70
2023/09/16 09:48:46;;;;;;;6.87;6.40;;;25.40;99.90;;;;;;5018332;28;20402;-71
2023/09/16 09:51:18;;;;;;;6.77;6.37;;;25.60;99.90;;;;;;5018936;28;20888;-71
2023/09/16 09:53:46;;;;;;;7.50;7.00;;;25.70;99.90;;;;;;5010107;28;20779;-70
2023/09/16 09:56:12;;;;;;;7.30;6.70;;;25.90;99.90;;;;;;5017226;28;20754;-70
2023/09/16 09:58:38;;;;;;;8.37;7.57;;;26.00;99.90;;;;;;5015287;28;20429;-69
2023/09/16 10:01:10;;;;;;;7.00;6.60;;;26.20;99.90;;;;;;5011271;28;20183;-68
2023/09/16 10:03:36;;;;;;;7.43;6.93;;;26.30;99.10;;;;;;5018233;28;20171;-69
2023/09/16 10:06:19;;;;;;;6.57;6.17;;;26.40;98.70;;;;;;5015674;28;21012;-68
2023/09/16 10:08:45;;;;;;;7.43;6.87;;;26.50;98.50;;;;;;5000736;28;20205;-69
2023/09/16 10:11:11;;;;;;;7.07;6.60;;;26.70;97.10;;;;;;5017925;28;20928;-69
2023/09/16 10:13:37;;;;;;;8.20;7.50;;;26.80;99.50;;;;;;5008866;28;20429;-68
2023/09/16 10:16:05;;;;;;;7.73;7.23;;;27.00;97.80;;;;;;5015084;28;20429;-70
2023/09/16 10:18:30;;;;;;;7.60;7.10;;;27.10;96.50;;;;;;5010752;28;20179;-70
2023/09/16 10:20:57;;;;;;;8.40;7.80;;;27.20;97.50;;;;;;5010830;28;20516;-69
2023/09/16 10:23:23;;;;;;;13.00;11.63;;;27.20;96.40;;;;;;5014899;28;20171;-68
2023/09/16 10:25:50;;;;;;;12.93;11.83;;;27.20;95.80;;;;;;5013267;28;20520;-68
2023/09/16 10:28:17;;;;;;;12.10;11.10;;;27.00;96.00;;;;;;5014286;28;20182;-66
2023/09/16 10:30:43;;;;;;;38.13;33.97;;;27.10;98.00;;;;;;4993214;28;20418;-67
2023/09/16 10:33:11;;;;;;;18.20;16.40;;;27.10;96.80;;;;;;5013404;28;20434;-73
2023/09/16 10:35:40;;;;;;;14.50;13.20;;;27.20;96.90;;;;;;5012969;28;20464;-73
2023/09/16 10:38:08;;;;;;;21.00;18.87;;;27.50;96.70;;;;;;5011367;28;20472;-71
2023/09/16 10:40:34;;;;;;;17.53;15.83;;;27.90;96.30;;;;;;5013722;28;20469;-66
2023/09/16 10:43:03;;;;;;;46.03;39.00;;;28.10;96.10;;;;;;5010800;28;20430;-66
2023/09/16 10:45:29;;;;;;;71.43;59.13;;;28.30;94.90;;;;;;5011258;28;20493;-67
2023/09/16 10:47:55;;;;;;;42.93;37.67;;;28.50;95.10;;;;;;5008612;28;20531;-65
2023/09/16 10:50:24;;;;;;;61.03;50.03;;;28.70;94.10;;;;;;5011552;28;20934;-67
2023/09/16 10:53:10;;;;;;;15.60;14.20;;;28.90;94.30;;;;;;5012768;28;20558;-67
2023/09/16 10:55:50;;;;;;;40.83;36.40;;;29.00;93.90;;;;;;5011905;28;20418;-67
2023/09/16 10:58:47;;;;;;;67.53;57.00;;;29.10;93.70;;;;;;5011477;28;20464;-67
2023/09/16 11:01:26;;;;;;;101.80;85.53;;;29.20;93.10;;;;;;5013042;28;20464;-67
2023/09/16 11:03:55;;;;;;;54.07;48.37;;;29.10;94.30;;;;;;5011449;28;20980;-67
2023/09/16 11:06:21;;;;;;;10.57;9.77;;;28.80;93.90;;;;;;5012035;28;20868;-66
2023/09/16 11:08:47;;;;;;;67.73;57.73;;;28.50;92.80;;;;;;5009721;28;20479;-67
2023/09/16 11:11:13;;;;;;;23.93;21.43;;;28.50;93.70;;;;;;5013361;28;20853;-67
2023/09/16 11:13:40;;;;;;;32.23;28.97;;;28.20;94.50;;;;;;5013855;28;20437;-67
2023/09/16 11:16:10;;;;;;;15.27;13.87;;;28.20;95.80;;;;;;5013625;28;20491;-67
2023/09/16 11:18:42;;;;;;;58.00;51.90;;;28.30;94.60;;;;;;5012002;28;20464;-67
2023/09/16 11:21:08;;;;;;;14.40;13.20;;;28.40;95.30;;;;;;5009775;28;20461;-66
2023/09/16 11:23:36;;;;;;;11.80;10.83;;;28.50;95.20;;;;;;5012670;28;20521;-66
2023/09/16 11:26:04;;;;;;;20.87;18.90;;;28.70;94.20;;;;;;5012274;28;20462;-67
2023/09/16 11:28:30;;;;;;;12.50;11.50;;;28.80;94.50;;;;;;5003400;28;20778;-66
2023/09/16 11:31:01;;;;;;;15.60;14.20;;;29.00;93.50;;;;;;4994653;28;20423;-67
2023/09/16 11:33:37;;;;;;;10.43;9.63;;;29.20;93.90;;;;;;5011686;28;20775;-67
2023/09/16 11:36:11;;;;;;;22.73;20.53;;;29.40;93.30;;;;;;5014145;28;20428;-66
2023/09/16 11:38:38;;;;;;;14.07;12.80;;;29.50;92.60;;;;;;5011679;28;20425;-70
2023/09/16 11:41:10;;;;;;;18.80;16.97;;;29.50;91.50;;;;;;5014263;28;20454;-67
2023/09/16 11:43:39;;;;;;;14.20;13.00;;;29.60;92.20;;;;;;5012278;28;20425;-67
2023/09/16 11:46:11;;;;;;;34.20;31.00;;;29.60;91.80;;;;;;5012205;28;20465;-67
2023/09/16 11:48:55;;;;;;;205.67;184.30;;;29.60;90.20;;;;;;5012995;28;20433;-66
2023/09/16 11:51:22;;;;;;;32.10;28.80;;;29.50;91.60;;;;;;5013241;28;20457;-70
2023/09/16 11:53:49;;;;;;;9.93;9.23;;;29.50;92.20;;;;;;5011446;28;20765;-68
2023/09/16 11:56:15;;;;;;;9.50;8.80;;;29.50;90.30;;;;;;5009741;28;20850;-66
2023/09/16 11:58:45;;;;;;;9.90;9.30;;;29.40;90.50;;;;;;5011791;28;20449;-65
2023/09/16 12:01:12;;;;;;;12.60;11.70;;;29.30;91.10;;;;;;5012190;28;20929;-67
2023/09/16 12:03:40;;;;;;;9.80;9.10;;;29.20;90.90;;;;;;5012321;28;20931;-66
2023/09/16 12:06:07;;;;;;;8.90;8.30;;;29.20;90.60;;;;;;5012213;28;20790;-65
2023/09/16 12:08:33;;;;;;;8.17;7.67;;;29.00;90.20;;;;;;5010065;28;20424;-64
2023/09/16 12:10:59;;;;;;;8.60;8.10;;;28.90;90.40;;;;;;5008836;28;20430;-67
2023/09/16 12:13:31;;;;;;;9.40;8.70;;;28.90;91.20;;;;;;5009443;28;20409;-67
2023/09/16 12:15:58;;;;;;;10.90;10.20;;;28.80;91.60;;;;;;5007659;28;20191;-66
2023/09/16 12:18:24;;;;;;;9.90;9.20;;;28.70;93.00;;;;;;5012706;28;20476;-68
2023/09/16 12:20:52;;;;;;;11.10;10.30;;;28.60;93.50;;;;;;5011693;28;20429;-67
2023/09/16 12:23:18;;;;;;;9.97;9.27;;;28.60;92.80;;;;;;5011366;28;20426;-69
2023/09/16 12:25:45;;;;;;;10.83;10.03;;;28.50;92.50;;;;;;5011211;28;20457;-67
2023/09/16 12:28:16;;;;;;;10.17;9.47;;;28.40;93.50;;;;;;5012976;28;20406;-67
2023/09/16 12:30:43;;;;;;;9.50;8.80;;;28.30;92.70;;;;;;5011396;28;20937;-66
2023/09/16 12:33:09;;;;;;;9.47;8.77;;;28.20;92.60;;;;;;5011905;28;20420;-68
2023/09/16 12:35:39;;;;;;;8.40;7.90;;;28.20;94.30;;;;;;5012575;28;20406;-66
2023/09/16 12:38:08;;;;;;;9.20;8.60;;;28.10;95.00;;;;;;5011025;28;20525;-68
2023/09/16 12:40:35;;;;;;;9.23;8.50;;;28.10;94.40;;;;;;5014521;28;20937;-63